createdAt,value
2022-08-24T00:00:49.531Z,26.6
2022-08-24T00:10:51.446Z,26.6
2022-08-24T00:20:53.215Z,26.6
2022-08-24T00:30:54.975Z,26.5
2022-08-24T00:40:56.642Z,26.5
2022-08-24T00:50:58.987Z,26.4
2022-08-24T01:01:01.588Z,26.4
2022-08-24T01:11:03.457Z,26.4
2022-08-24T01:21:06.073Z,26.3
2022-08-24T01:31:08.564Z,26.3
2022-08-24T01:41:12.249Z,26.2
2022-08-24T01:51:13.689Z,26.2
2022-08-24T02:01:15.629Z,26.1
2022-08-24T02:11:17.752Z,26.1
2022-08-24T02:21:19.660Z,26
2022-08-24T02:51:26.096Z,25.9
2022-08-24T03:21:32.344Z,25.7
2022-08-24T03:31:34.750Z,25.7
2022-08-24T03:41:36.873Z,25.6
2022-08-24T03:51:38.976Z,25.6
2022-08-24T04:01:41.190Z,25.5
2022-08-24T04:11:43.592Z,25.5
2022-08-24T04:21:45.798Z,25.4
2022-08-24T04:31:47.720Z,25.4
2022-08-24T04:41:50.429Z,25.4
2022-08-24T04:51:51.833Z,25.3
2022-08-24T05:01:53.754Z,25.3
2022-08-24T05:11:55.995Z,25.3
2022-08-24T05:32:00.143Z,25.3
2022-08-24T05:42:02.614Z,25.4
2022-08-24T05:52:04.337Z,25.4
2022-08-24T06:22:11.264Z,25.5
2022-08-24T06:32:13.057Z,25.6
2022-08-24T06:42:15.440Z,25.6
2022-08-24T06:52:17.492Z,25.6
2022-08-24T07:02:19.682Z,25.7
2022-08-24T07:12:21.423Z,25.8
2022-08-24T07:32:26.116Z,26
2022-08-24T08:12:35.541Z,26.3
2022-08-24T08:22:38.044Z,26.4
2022-08-24T08:42:42.661Z,26.5
2022-08-24T08:52:44.471Z,26.6
2022-08-24T09:12:49.545Z,26.7
2022-08-24T09:22:51.560Z,26.8
2022-08-24T09:32:53.936Z,26.8
2022-08-24T09:52:57.556Z,26.9
2022-08-24T10:23:04.330Z,27
2022-08-24T10:33:06.058Z,27.1
2022-08-24T10:43:08.352Z,27.1
2022-08-24T11:03:12.692Z,27.1
2022-08-24T11:13:14.553Z,27.2
2022-08-24T11:43:21.083Z,27.2
2022-08-24T11:53:23.018Z,27.2
2022-08-24T12:03:24.810Z,27.3
2022-08-24T12:23:29.177Z,27.3
2022-08-24T12:33:31.289Z,27.3
2022-08-24T12:43:33.254Z,27.3
2022-08-24T12:53:35.904Z,27.3
2022-08-24T13:33:45.472Z,27.3
2022-08-24T13:43:47.514Z,27.3
2022-08-24T13:53:50.100Z,27.3
2022-08-24T14:03:52.674Z,27.3
2022-08-24T14:13:54.652Z,27.4
2022-08-24T14:23:56.648Z,27.4
2022-08-24T14:33:59.132Z,27.4
2022-08-24T14:44:01.025Z,27.4
2022-08-24T14:54:02.926Z,27.4
2022-08-24T15:04:05.045Z,27.4
2022-08-24T15:14:06.995Z,27.4
2022-08-24T15:24:10.093Z,27.5
2022-08-24T15:34:11.468Z,27.5
2022-08-24T15:44:13.185Z,27.5
2022-08-24T16:04:17.193Z,27.5
2022-08-24T16:14:18.941Z,27.5
2022-08-24T16:24:21.558Z,27.6
2022-08-24T16:34:23.620Z,27.6
2022-08-24T16:44:26.052Z,27.6
2022-08-24T16:54:27.194Z,27.6
2022-08-24T17:04:29.688Z,27.6
2022-08-24T17:14:31.912Z,27.6
2022-08-24T17:24:33.877Z,27.6
2022-08-24T17:44:38.452Z,27.7
2022-08-24T17:54:40.577Z,27.7
2022-08-24T18:14:44.156Z,27.7
2022-08-24T18:24:46.174Z,27.7
2022-08-24T18:34:48.107Z,27.7
2022-08-24T18:44:50.715Z,27.6
2022-08-24T18:54:53.307Z,27.6
2022-08-24T19:04:55.840Z,27.6
2022-08-24T19:14:57.541Z,27.6
2022-08-24T19:35:01.900Z,27.6
2022-08-24T19:45:04.674Z,27.6
2022-08-24T19:55:06.263Z,27.6
2022-08-24T20:15:18.006Z,27.6
2022-08-24T20:25:20.313Z,27.6
2022-08-24T20:35:24.493Z,27.5
2022-08-24T20:55:27.297Z,27.5
2022-08-24T21:05:29.467Z,27.4
2022-08-24T21:15:31.482Z,27.4
2022-08-24T21:25:33.694Z,27.4
2022-08-24T21:35:35.766Z,27.3
2022-08-24T21:45:38.179Z,27.3
2022-08-24T21:55:39.952Z,27.3
2022-08-24T22:05:42.565Z,27.2
2022-08-24T22:15:44.529Z,27.2
2022-08-24T22:25:46.449Z,27.1
2022-08-24T22:35:49.123Z,27.1
2022-08-24T22:45:51.107Z,27.1
2022-08-24T23:15:57.547Z,26.9
2022-08-24T23:46:03.911Z,26.9
